Time,TemperatureF,DewpointF,PressureIn,WindDirection,WindDirectionDegrees,WindSpeedMPH,WindSpeedGustMPH,Humidity,HourlyPrecipIn,Conditions,Clouds,dailyrainin,SoftwareType,DateUTC
2013-05-23 00:05:00,33.7,33.7,29.85,South,187,2.0,4.0,100,0.00,,,0.00,Wunderground v.1.15,2013-05-23 08:05:00,
2013-05-23 00:15:00,33.5,33.5,29.85,South,187,0.0,1.0,100,0.00,,,0.00,Wunderground v.1.15,2013-05-23 08:15:00,
2013-05-23 00:25:00,33.7,33.7,29.85,South,187,1.0,7.0,100,0.00,,,0.00,Wunderground v.1.15,2013-05-23 08:25:00,
2013-05-23 00:30:00,34.0,34.0,29.86,South,187,5.0,5.0,100,0.00,,,0.00,Wunderground v.1.15,2013-05-23 08:30:00,
2013-05-23 00:40:00,33.8,33.8,29.86,South,187,3.0,3.0,100,0.00,,,0.00,Wunderground v.1.15,2013-05-23 08:40:00,
2013-05-23 00:45:00,33.8,33.8,29.86,South,187,3.0,4.0,100,0.00,,,0.00,Wunderground v.1.15,2013-05-23 08:45:00,
2013-05-23 00:50:00,33.7,33.7,29.86,South,187,2.0,2.0,100,0.00,,,0.00,Wunderground v.1.15,2013-05-23 08:50:00,
2013-05-23 01:00:00,33.8,33.8,29.86,South,187,3.0,3.0,100,0.00,,,0.00,Wunderground v.1.15,2013-05-23 09:00:00,
2013-05-23 01:10:00,33.8,33.8,29.86,South,187,2.0,2.0,100,0.00,,,0.00,Wunderground v.1.15,2013-05-23 09:10:00,
2013-05-23 01:15:00,33.8,33.8,29.87,South,187,3.0,3.0,100,0.00,,,0.00,Wunderground v.1.15,2013-05-23 09:15:00,
2013-05-23 01:25:00,33.8,33.8,29.87,South,187,3.0,3.0,100,0.00,,,0.00,Wunderground v.1.15,2013-05-23 09:25:00,
2013-05-23 01:30:00,33.8,33.8,29.86,South,187,3.0,3.0,100,0.00,,,0.00,Wunderground v.1.15,2013-05-23 09:30:00,
2013-05-23 01:40:00,33.5,33.5,29.86,South,187,1.0,1.0,100,0.00,,,0.00,Wunderground v.1.15,2013-05-23 09:40:00,
2013-05-23 01:50:00,33.5,33.5,29.87,South,187,1.0,1.0,100,0.00,,,0.00,Wunderground v.1.15,2013-05-23 09:50:00,
2013-05-23 02:00:00,33.2,33.2,29.87,South,187,1.0,1.0,100,0.00,,,0.00,Wunderground v.1.15,2013-05-23 10:00:00,
2013-05-23 02:05:00,33.2,33.2,29.87,South,187,1.0,1.0,100,0.00,,,0.00,Wunderground v.1.15,2013-05-23 10:05:00,
2013-05-23 02:15:00,33.8,33.8,29.87,South,187,4.0,7.0,100,0.00,,,0.00,Wunderground v.1.15,2013-05-23 10:15:00,
2013-05-23 02:25:00,33.8,33.8,29.87,South,187,6.0,6.0,100,0.00,,,0.00,Wunderground v.1.15,2013-05-23 10:25:00,
2013-05-23 02:35:00,33.7,33.7,29.87,South,187,5.0,6.0,100,0.00,,,0.00,Wunderground v.1.15,2013-05-23 10:35:00,
2013-05-23 02:45:00,33.8,33.8,29.87,South,187,8.0,8.0,100,0.00,,,0.00,Wunderground v.1.15,2013-05-23 10:45:00,
2013-05-23 02:55:00,34.1,34.1,29.87,South,187,10.0,11.0,100,0.00,,,0.00,Wunderground v.1.15,2013-05-23 10:55:00,
2013-05-23 03:00:00,34.0,34.0,29.87,South,184,9.0,9.0,100,0.00,,,0.00,Wunderground v.1.15,2013-05-23 11:00:00,
2013-05-23 03:10:00,34.0,34.0,29.87,South,179,10.0,10.0,100,0.00,,,0.01,Wunderground v.1.15,2013-05-23 11:10:00,
2013-05-23 03:20:00,34.0,34.0,29.87,South,177,10.0,10.0,100,0.00,,,0.01,Wunderground v.1.15,2013-05-23 11:20:00,
2013-05-23 03:30:00,34.3,34.3,29.86,South,181,11.0,12.0,100,0.00,,,0.01,Wunderground v.1.15,2013-05-23 11:30:00,
2013-05-23 03:40:00,34.1,34.1,29.86,South,169,12.0,14.0,100,0.00,,,0.01,Wunderground v.1.15,2013-05-23 11:40:00,
2013-05-23 03:50:00,34.1,34.1,29.86,South,173,13.0,13.0,100,0.00,,,0.01,Wunderground v.1.15,2013-05-23 11:50:00,
2013-05-23 03:55:00,34.0,34.0,29.86,South,179,13.0,15.0,100,0.00,,,0.01,Wunderground v.1.15,2013-05-23 11:55:00,
2013-05-23 04:00:00,34.1,34.1,29.86,South,186,14.0,14.0,100,0.00,,,0.02,Wunderground v.1.15,2013-05-23 12:00:00,
2013-05-23 04:10:00,34.1,34.1,29.86,South,173,14.0,14.0,100,0.00,,,0.02,Wunderground v.1.15,2013-05-23 12:10:00,
2013-05-23 04:20:00,34.1,34.1,29.86,South,170,14.0,14.0,100,0.00,,,0.02,Wunderground v.1.15,2013-05-23 12:20:00,
2013-05-23 04:25:00,34.1,34.1,29.86,South,169,14.0,17.0,100,0.00,,,0.02,Wunderground v.1.15,2013-05-23 12:25:00,
2013-05-23 04:30:00,34.1,34.1,29.86,SSE,166,15.0,16.0,100,0.00,,,0.02,Wunderground v.1.15,2013-05-23 12:30:00,
2013-05-23 04:40:00,34.1,34.1,29.86,South,174,15.0,15.0,100,0.00,,,0.02,Wunderground v.1.15,2013-05-23 12:40:00,
2013-05-23 04:45:00,34.1,34.1,29.86,South,173,14.0,15.0,100,0.00,,,0.02,Wunderground v.1.15,2013-05-23 12:45:00,
2013-05-23 04:55:00,34.4,34.4,29.86,South,179,16.0,20.0,100,0.00,,,0.02,Wunderground v.1.15,2013-05-23 12:55:00,
2013-05-23 05:05:00,34.3,34.3,29.86,South,173,16.0,16.0,100,0.00,,,0.03,Wunderground v.1.15,2013-05-23 13:05:00,
2013-05-23 05:10:00,34.4,34.4,29.86,South,180,16.0,17.0,100,0.00,,,0.03,Wunderground v.1.15,2013-05-23 13:10:00,
2013-05-23 05:20:00,34.3,34.3,29.87,South,179,16.0,17.0,100,0.00,,,0.03,Wunderground v.1.15,2013-05-23 13:20:00,
2013-05-23 05:30:00,34.0,34.0,29.87,South,176,15.0,16.0,100,0.00,,,0.03,Wunderground v.1.15,2013-05-23 13:30:00,
2013-05-23 05:40:00,33.8,33.8,29.87,South,177,15.0,17.0,100,0.00,,,0.04,Wunderground v.1.15,2013-05-23 13:40:00,
2013-05-23 05:50:00,33.8,33.8,29.87,South,180,15.0,15.0,100,0.00,,,0.04,Wunderground v.1.15,2013-05-23 13:50:00,
2013-05-23 05:55:00,33.8,33.8,29.87,South,174,14.0,15.0,100,0.00,,,0.04,Wunderground v.1.15,2013-05-23 13:55:00,
2013-05-23 06:05:00,33.7,33.7,29.87,South,173,13.0,14.0,100,0.00,,,0.04,Wunderground v.1.15,2013-05-23 14:05:00,
2013-05-23 06:15:00,33.7,33.7,29.87,South,181,15.0,16.0,100,0.00,,,0.04,Wunderground v.1.15,2013-05-23 14:15:00,
2013-05-23 06:25:00,33.5,33.5,29.87,South,179,14.0,15.0,100,0.00,,,0.04,Wunderground v.1.15,2013-05-23 14:25:00,
2013-05-23 06:35:00,33.4,33.4,29.88,South,181,13.0,14.0,100,0.00,,,0.04,Wunderground v.1.15,2013-05-23 14:35:00,
2013-05-23 06:40:00,33.4,33.4,29.88,South,187,13.0,13.0,100,0.00,,,0.04,Wunderground v.1.15,2013-05-23 14:40:00,
2013-05-23 06:50:00,33.4,33.4,29.87,South,181,14.0,17.0,100,0.00,,,0.04,Wunderground v.1.15,2013-05-23 14:50:00,
2013-05-23 07:00:00,33.1,33.1,29.88,SSW,193,12.0,12.0,100,0.00,,,0.04,Wunderground v.1.15,2013-05-23 15:00:00,
2013-05-23 07:05:00,33.1,33.1,29.88,South,191,11.0,12.0,100,0.00,,,0.05,Wunderground v.1.15,2013-05-23 15:05:00,
2013-05-23 07:15:00,33.1,33.1,29.88,SSW,194,11.0,12.0,100,0.00,,,0.05,Wunderground v.1.15,2013-05-23 15:15:00,
2013-05-23 07:25:00,33.1,33.1,29.88,SSW,201,12.0,13.0,100,0.00,,,0.05,Wunderground v.1.15,2013-05-23 15:25:00,
2013-05-23 07:35:00,32.9,32.9,29.88,SSW,198,12.0,12.0,100,0.00,,,0.05,Wunderground v.1.15,2013-05-23 15:35:00,
2013-05-23 07:45:00,32.9,32.9,29.88,SW,215,12.0,15.0,100,0.00,,,0.05,Wunderground v.1.15,2013-05-23 15:45:00,
2013-05-23 07:55:00,32.8,32.8,29.88,SSW,201,12.0,13.0,100,0.00,,,0.05,Wunderground v.1.15,2013-05-23 15:55:00,
2013-05-23 08:00:00,32.8,32.8,29.89,SSW,198,12.0,13.0,100,0.00,,,0.05,Wunderground v.1.15,2013-05-23 16:00:00,
2013-05-23 08:10:00,32.7,32.7,29.89,SSW,200,13.0,13.0,100,0.00,,,0.05,Wunderground v.1.15,2013-05-23 16:10:00,
2013-05-23 08:20:00,32.7,32.7,29.89,SSW,197,11.0,13.0,100,0.00,,,0.05,Wunderground v.1.15,2013-05-23 16:20:00,
2013-05-23 08:30:00,32.7,32.7,29.90,SSW,201,12.0,12.0,100,0.00,,,0.05,Wunderground v.1.15,2013-05-23 16:30:00,
2013-05-23 08:35:00,32.7,32.7,29.90,SSW,204,12.0,12.0,100,0.00,,,0.05,Wunderground v.1.15,2013-05-23 16:35:00,
2013-05-23 08:45:00,32.5,32.5,29.90,SSW,201,11.0,12.0,100,0.00,,,0.05,Wunderground v.1.15,2013-05-23 16:45:00,
2013-05-23 08:55:00,32.4,32.4,29.90,SSW,204,12.0,13.0,100,0.00,,,0.05,Wunderground v.1.15,2013-05-23 16:55:00,
2013-05-23 09:05:00,32.4,32.4,29.90,SSW,208,12.0,12.0,100,0.00,,,0.05,Wunderground v.1.15,2013-05-23 17:05:00,
2013-05-23 09:15:00,32.4,32.4,29.91,SW,221,12.0,13.0,100,0.00,,,0.05,Wunderground v.1.15,2013-05-23 17:15:00,
2013-05-23 09:25:00,32.4,32.4,29.91,SW,221,12.0,15.0,100,0.00,,,0.05,Wunderground v.1.15,2013-05-23 17:25:00,
2013-05-23 09:30:00,32.4,32.4,29.91,SSW,207,12.0,12.0,100,0.00,,,0.05,Wunderground v.1.15,2013-05-23 17:30:00,
2013-05-23 09:40:00,32.2,32.2,29.91,SW,224,11.0,11.0,100,0.00,,,0.05,Wunderground v.1.15,2013-05-23 17:40:00,
2013-05-23 09:50:00,32.2,32.2,29.91,SW,221,10.0,10.0,100,0.00,,,0.05,Wunderground v.1.15,2013-05-23 17:50:00,
2013-05-23 10:00:00,32.2,32.2,29.92,SW,215,10.0,12.0,100,0.00,,,0.05,Wunderground v.1.15,2013-05-23 18:00:00,
2013-05-23 10:10:00,32.2,32.2,29.92,SW,220,10.0,11.0,100,0.00,,,0.05,Wunderground v.1.15,2013-05-23 18:10:00,
2013-05-23 10:20:00,32.2,32.2,29.92,SW,215,10.0,10.0,100,0.00,,,0.05,Wunderground v.1.15,2013-05-23 18:20:00,
2013-05-23 10:30:00,32.1,32.1,29.93,SSW,212,10.0,11.0,100,0.00,,,0.05,Wunderground v.1.15,2013-05-23 18:30:00,
2013-05-23 10:40:00,32.1,32.1,29.93,SW,214,9.0,9.0,100,0.00,,,0.05,Wunderground v.1.15,2013-05-23 18:40:00,
2013-05-23 10:45:00,32.2,32.2,29.93,SSW,212,9.0,11.0,100,0.00,,,0.05,Wunderground v.1.15,2013-05-23 18:45:00,
2013-05-23 10:55:00,32.2,32.2,29.93,SW,218,9.0,12.0,100,0.00,,,0.05,Wunderground v.1.15,2013-05-23 18:55:00,
2013-05-23 11:05:00,32.4,32.4,29.93,SW,224,8.0,9.0,100,0.00,,,0.05,Wunderground v.1.15,2013-05-23 19:05:00,
2013-05-23 11:10:00,32.4,32.4,29.93,SW,214,7.0,8.0,100,0.00,,,0.05,Wunderground v.1.15,2013-05-23 19:10:00,
2013-05-23 11:20:00,32.7,32.7,29.94,WSW,238,7.0,7.0,100,0.00,,,0.05,Wunderground v.1.15,2013-05-23 19:20:00,
2013-05-23 11:30:00,32.9,32.9,29.94,SW,231,7.0,8.0,100,0.00,,,0.05,Wunderground v.1.15,2013-05-23 19:30:00,
2013-05-23 11:40:00,32.9,32.9,29.94,WSW,242,7.0,7.0,100,0.00,,,0.05,Wunderground v.1.15,2013-05-23 19:40:00,
2013-05-23 11:50:00,32.8,32.8,29.95,SW,222,7.0,7.0,100,0.00,,,0.05,Wunderground v.1.15,2013-05-23 19:50:00,
2013-05-23 11:55:00,32.8,32.8,29.95,SW,235,7.0,11.0,100,0.00,,,0.05,Wunderground v.1.15,2013-05-23 19:55:00,
2013-05-23 12:05:00,32.9,32.9,29.95,WSW,255,9.0,9.0,100,0.00,,,0.05,Wunderground v.1.15,2013-05-23 20:05:00,
2013-05-23 12:15:00,33.5,33.5,29.96,WSW,244,10.0,12.0,100,0.00,,,0.05,Wunderground v.1.15,2013-05-23 20:15:00,
2013-05-23 12:20:00,33.5,33.5,29.96,West,265,11.0,12.0,100,0.00,,,0.05,Wunderground v.1.15,2013-05-23 20:20:00,
2013-05-23 12:30:00,33.8,33.8,29.96,WSW,239,11.0,11.0,100,0.00,,,0.05,Wunderground v.1.15,2013-05-23 20:30:00,
2013-05-23 12:35:00,34.0,34.0,29.96,West,272,9.0,12.0,100,0.00,,,0.05,Wunderground v.1.15,2013-05-23 20:35:00,
2013-05-23 12:45:00,33.7,33.7,29.97,West,263,10.0,11.0,100,0.00,,,0.05,Wunderground v.1.15,2013-05-23 20:45:00,
2013-05-23 12:55:00,34.1,34.1,29.97,WSW,245,8.0,9.0,100,0.00,,,0.05,Wunderground v.1.15,2013-05-23 20:55:00,
2013-05-23 13:05:00,34.4,33.4,29.97,WSW,244,6.0,6.0,96,0.00,,,0.05,Wunderground v.1.15,2013-05-23 21:05:00,
2013-05-23 13:15:00,34.4,32.6,29.98,WSW,248,5.0,6.0,93,0.00,,,0.05,Wunderground v.1.15,2013-05-23 21:15:00,
2013-05-23 13:25:00,34.3,31.9,29.98,WSW,239,8.0,8.0,91,0.00,,,0.05,Wunderground v.1.15,2013-05-23 21:25:00,
2013-05-23 13:35:00,34.0,32.2,29.98,SW,235,7.0,8.0,93,0.00,,,0.05,Wunderground v.1.15,2013-05-23 21:35:00,
2013-05-23 13:45:00,33.8,32.0,29.99,SW,218,8.0,8.0,93,0.00,,,0.05,Wunderground v.1.15,2013-05-23 21:45:00,
2013-05-23 13:50:00,33.8,32.0,29.99,SW,224,8.0,8.0,93,0.00,,,0.05,Wunderground v.1.15,2013-05-23 21:50:00,
2013-05-23 14:00:00,33.8,32.0,29.99,WSW,241,8.0,9.0,93,0.00,,,0.05,Wunderground v.1.15,2013-05-23 22:00:00,
2013-05-23 14:10:00,33.5,31.7,29.99,SW,231,11.0,11.0,93,0.00,,,0.05,Wunderground v.1.15,2013-05-23 22:10:00,
2013-05-23 14:20:00,33.5,31.4,30.00,WSW,245,10.0,10.0,92,0.00,,,0.05,Wunderground v.1.15,2013-05-23 22:20:00,
2013-05-23 14:30:00,33.5,32.2,30.00,SW,227,9.0,9.0,95,0.00,,,0.05,Wunderground v.1.15,2013-05-23 22:30:00,
2013-05-23 14:35:00,33.8,32.5,30.00,SW,229,8.0,9.0,95,0.00,,,0.05,Wunderground v.1.15,2013-05-23 22:35:00,
2013-05-23 14:45:00,33.8,32.3,30.00,SW,229,8.0,8.0,94,0.00,,,0.05,Wunderground v.1.15,2013-05-23 22:45:00,
2013-05-23 14:55:00,34.1,32.3,30.00,SW,220,7.0,8.0,93,0.00,,,0.05,Wunderground v.1.15,2013-05-23 22:55:00,
2013-05-23 15:05:00,33.8,32.3,30.01,SW,231,8.0,10.0,94,0.00,,,0.05,Wunderground v.1.15,2013-05-23 23:05:00,
2013-05-23 15:15:00,33.7,32.2,30.01,WSW,238,9.0,13.0,94,0.00,,,0.05,Wunderground v.1.15,2013-05-23 23:15:00,
2013-05-23 15:25:00,33.8,32.3,30.01,SW,234,9.0,9.0,94,0.00,,,0.05,Wunderground v.1.15,2013-05-23 23:25:00,
2013-05-23 15:30:00,33.8,32.3,30.01,SW,232,8.0,8.0,94,0.00,,,0.05,Wunderground v.1.15,2013-05-23 23:30:00,
2013-05-23 15:40:00,34.0,32.5,30.01,SW,220,9.0,9.0,94,0.00,,,0.05,Wunderground v.1.15,2013-05-23 23:40:00,
2013-05-23 15:50:00,34.3,32.5,30.02,SW,234,8.0,8.0,93,0.00,,,0.05,Wunderground v.1.15,2013-05-23 23:50:00,
2013-05-23 15:55:00,34.3,32.5,30.02,SW,234,9.0,10.0,93,0.00,,,0.05,Wunderground v.1.15,2013-05-23 23:55:00,
2013-05-23 16:05:00,33.8,32.3,30.02,SW,221,9.0,9.0,94,0.00,,,0.05,Wunderground v.1.15,2013-05-24 00:05:00,
2013-05-23 16:10:00,33.5,32.2,30.02,SW,228,9.0,9.0,95,0.00,,,0.05,Wunderground v.1.15,2013-05-24 00:10:00,
2013-05-23 16:20:00,33.8,32.3,30.02,SW,227,8.0,11.0,94,0.00,,,0.05,Wunderground v.1.15,2013-05-24 00:20:00,
2013-05-23 16:30:00,34.1,32.3,30.02,SW,231,9.0,10.0,93,0.00,,,0.05,Wunderground v.1.15,2013-05-24 00:30:00,
2013-05-23 16:40:00,34.3,32.2,30.02,WSW,238,9.0,9.0,92,0.00,,,0.05,Wunderground v.1.15,2013-05-24 00:40:00,
2013-05-23 16:45:00,34.0,32.2,30.02,SW,224,11.0,11.0,93,0.00,,,0.05,Wunderground v.1.15,2013-05-24 00:45:00,
2013-05-23 16:55:00,34.4,32.6,30.02,SW,220,8.0,8.0,93,0.00,,,0.05,Wunderground v.1.15,2013-05-24 00:55:00,
2013-05-23 17:05:00,34.1,32.3,30.03,SW,222,9.0,10.0,93,0.00,,,0.05,Wunderground v.1.15,2013-05-24 01:05:00,
2013-05-23 17:10:00,34.0,32.5,30.03,WSW,238,8.0,8.0,94,0.00,,,0.05,Wunderground v.1.15,2013-05-24 01:10:00,
2013-05-23 17:20:00,33.4,32.1,30.03,SW,222,9.0,10.0,95,0.00,,,0.05,Wunderground v.1.15,2013-05-24 01:20:00,
2013-05-23 17:30:00,33.4,32.4,30.04,SW,224,9.0,9.0,96,0.00,,,0.05,Wunderground v.1.15,2013-05-24 01:30:00,
2013-05-23 17:40:00,33.2,32.2,30.04,SW,234,8.0,8.0,96,0.00,,,0.05,Wunderground v.1.15,2013-05-24 01:40:00,
2013-05-23 17:50:00,33.2,32.4,30.04,WSW,238,9.0,9.0,97,0.00,,,0.05,Wunderground v.1.15,2013-05-24 01:50:00,
2013-05-23 18:00:00,33.2,32.7,30.05,SW,225,8.0,11.0,98,0.00,,,0.05,Wunderground v.1.15,2013-05-24 02:00:00,
2013-05-23 18:10:00,33.1,32.9,30.05,SW,229,8.0,8.0,99,0.00,,,0.05,Wunderground v.1.15,2013-05-24 02:10:00,
2013-05-23 18:20:00,33.1,33.1,30.05,SW,227,7.0,7.0,100,0.00,,,0.05,Wunderground v.1.15,2013-05-24 02:20:00,
2013-05-23 18:30:00,33.4,33.4,30.05,WSW,246,6.0,6.0,100,0.00,,,0.05,Wunderground v.1.15,2013-05-24 02:30:00,
2013-05-23 18:40:00,33.7,33.4,30.05,WSW,238,7.0,7.0,99,0.00,,,0.05,Wunderground v.1.15,2013-05-24 02:40:00,
2013-05-23 18:50:00,34.0,33.5,30.05,WSW,241,7.0,7.0,98,0.00,,,0.05,Wunderground v.1.15,2013-05-24 02:50:00,
2013-05-23 18:55:00,34.0,33.5,30.05,SW,236,8.0,9.0,98,0.00,,,0.05,Wunderground v.1.15,2013-05-24 02:55:00,
2013-05-23 19:05:00,34.1,33.3,30.06,SW,234,7.0,10.0,97,0.00,,,0.05,Wunderground v.1.15,2013-05-24 03:05:00,
2013-05-23 19:15:00,33.7,33.2,30.06,WSW,238,7.0,11.0,98,0.00,,,0.05,Wunderground v.1.15,2013-05-24 03:15:00,
2013-05-23 19:25:00,33.5,33.0,30.06,WSW,241,7.0,7.0,98,0.00,,,0.05,Wunderground v.1.15,2013-05-24 03:25:00,
2013-05-23 19:30:00,33.5,33.2,30.06,WSW,242,7.0,7.0,99,0.00,,,0.05,Wunderground v.1.15,2013-05-24 03:30:00,
2013-05-23 19:40:00,33.5,33.2,30.06,SW,236,6.0,7.0,99,0.00,,,0.05,Wunderground v.1.15,2013-05-24 03:40:00,
2013-05-23 19:50:00,33.5,33.5,30.06,WSW,239,6.0,6.0,100,0.00,,,0.05,Wunderground v.1.15,2013-05-24 03:50:00,
2013-05-23 19:55:00,33.4,33.4,30.06,WSW,251,7.0,11.0,100,0.00,,,0.05,Wunderground v.1.15,2013-05-24 03:55:00,
2013-05-23 20:05:00,33.4,33.4,30.06,WSW,244,6.0,7.0,100,0.00,,,0.05,Wunderground v.1.15,2013-05-24 04:05:00,
2013-05-23 20:15:00,33.4,33.4,30.06,SW,234,6.0,7.0,100,0.00,,,0.05,Wunderground v.1.15,2013-05-24 04:15:00,
2013-05-23 20:25:00,33.4,33.4,30.06,WSW,248,6.0,7.0,100,0.00,,,0.05,Wunderground v.1.15,2013-05-24 04:25:00,
2013-05-23 20:30:00,33.4,33.4,30.06,WSW,251,6.0,6.0,100,0.00,,,0.05,Wunderground v.1.15,2013-05-24 04:30:00,
2013-05-23 20:40:00,33.4,33.4,30.06,WSW,258,6.0,7.0,100,0.00,,,0.05,Wunderground v.1.15,2013-05-24 04:40:00,
2013-05-23 20:45:00,33.4,33.4,30.06,WSW,245,6.0,7.0,100,0.00,,,0.05,Wunderground v.1.15,2013-05-24 04:45:00,
2013-05-23 20:50:00,33.4,33.4,30.06,WSW,246,6.0,6.0,100,0.00,,,0.05,Wunderground v.1.15,2013-05-24 04:50:00,
2013-05-23 20:55:00,33.5,33.5,30.06,WSW,255,5.0,6.0,100,0.00,,,0.05,Wunderground v.1.15,2013-05-24 04:55:00,
2013-05-23 21:05:00,33.5,33.5,30.06,WSW,241,5.0,6.0,100,0.00,,,0.05,Wunderground v.1.15,2013-05-24 05:05:00,
2013-05-23 21:15:00,33.5,33.5,30.06,WSW,244,5.0,6.0,100,0.00,,,0.05,Wunderground v.1.15,2013-05-24 05:15:00,
2013-05-23 21:20:00,33.4,33.4,30.06,WSW,241,5.0,6.0,100,0.00,,,0.05,Wunderground v.1.15,2013-05-24 05:20:00,
2013-05-23 21:25:00,33.4,33.4,30.06,WSW,249,5.0,6.0,100,0.00,,,0.05,Wunderground v.1.15,2013-05-24 05:25:00,
2013-05-23 21:30:00,33.2,33.2,30.07,WSW,253,5.0,6.0,100,0.00,,,0.05,Wunderground v.1.15,2013-05-24 05:30:00,
2013-05-23 21:40:00,33.4,33.4,30.07,SW,229,4.0,7.0,100,0.00,,,0.05,Wunderground v.1.15,2013-05-24 05:40:00,
2013-05-23 21:50:00,33.1,33.1,30.07,WSW,248,5.0,5.0,100,0.00,,,0.05,Wunderground v.1.15,2013-05-24 05:50:00,
2013-05-23 21:55:00,33.1,33.1,30.07,WSW,238,4.0,5.0,100,0.00,,,0.05,Wunderground v.1.15,2013-05-24 05:55:00,
2013-05-23 22:05:00,32.9,32.9,30.07,SW,227,3.0,3.0,100,0.00,,,0.05,Wunderground v.1.15,2013-05-24 06:05:00,
2013-05-23 22:10:00,32.8,32.8,30.07,SW,227,3.0,5.0,100,0.00,,,0.05,Wunderground v.1.15,2013-05-24 06:10:00,
2013-05-23 22:20:00,32.7,32.7,30.08,SW,218,4.0,5.0,100,0.00,,,0.05,Wunderground v.1.15,2013-05-24 06:20:00,
2013-05-23 22:30:00,32.5,32.5,30.08,SW,218,5.0,5.0,100,0.00,,,0.05,Wunderground v.1.15,2013-05-24 06:30:00,
2013-05-23 22:40:00,32.5,32.5,30.08,SW,220,3.0,3.0,100,0.00,,,0.05,Wunderground v.1.15,2013-05-24 06:40:00,
2013-05-23 22:45:00,32.5,32.5,30.08,SW,221,3.0,4.0,100,0.00,,,0.05,Wunderground v.1.15,2013-05-24 06:45:00,
2013-05-23 22:55:00,32.4,32.4,30.08,SW,214,4.0,4.0,100,0.00,,,0.05,Wunderground v.1.15,2013-05-24 06:55:00,
2013-05-23 23:05:00,32.5,32.5,30.08,WSW,258,2.0,3.0,100,0.00,,,0.05,Wunderground v.1.15,2013-05-24 07:05:00,
2013-05-23 23:10:00,32.7,32.7,30.08,WSW,255,2.0,3.0,100,0.00,,,0.05,Wunderground v.1.15,2013-05-24 07:10:00,
2013-05-23 23:20:00,32.5,32.5,30.08,WSW,252,3.0,3.0,100,0.00,,,0.05,Wunderground v.1.15,2013-05-24 07:20:00,
2013-05-23 23:30:00,32.5,32.5,30.09,SW,231,2.0,5.0,100,0.00,,,0.05,Wunderground v.1.15,2013-05-24 07:30:00,
2013-05-23 23:40:00,32.2,32.2,30.09,SSW,198,4.0,6.0,100,0.00,,,0.05,Wunderground v.1.15,2013-05-24 07:40:00,
2013-05-23 23:50:00,32.1,32.1,30.09,South,169,6.0,10.0,100,0.00,,,0.05,Wunderground v.1.15,2013-05-24 07:50:00,
2013-05-23 23:55:00,32.1,32.1,30.09,SSE,164,7.0,10.0,100,0.00,,,0.05,Wunderground v.1.15,2013-05-24 07:55:00,